Latest Coastal Weather Observations for Eucla

IDS60701

Issued at 7:21 pm CST Sunday 30 August 2015 (issued every 10 minutes, with the page automatically refreshed every 10 minutes)

About coastal observations | Map of coastal stations | Coastal observations for SA | Marine services | Other Formats
Station Details ID: 011003 Name: EUCLA Lat: -31.68 Lon: 128.90 Height: 93.1 m
Data from the previous 72 hours. | See also: Recent months at Eucla
Date/Time
CST
Temp

°C
Wind Pressure Rain
since 9am
mm
Weather Cloud Vis
km
Sea
Height
m
Swell
Dir
 
Speed
knots
Gust
knots
hPa Trend Height
m
Period
s
Dir
30/07:00pm 17.1 NNE 12 17 1014.7 - 5.4 - - - - - - -
30/06:30pm 17.4 NNE 11 18 1014.4 - 5.4 - - - - - - -
30/06:00pm 17.7 NE 9 14 1014.5 - 5.4 - - - - - - -
30/05:30pm 17.9 NE 9 12 1014.8 - 5.4 - - - - - - -
30/05:00pm 19.9 NE 9 13 1014.3 - 3.4 - - - - - - -
30/04:30pm 21.2 ENE 10 14 1014.3 - 3.4 Distant precip. Mostly cloudy 20 - - - -
30/04:00pm 22.4 ENE 9 14 1014.3 - 3.4 - - - - - - -
30/03:30pm 22.1 ENE 7 10 1014.5 - 3.4 - - - - - - -
30/03:00pm 20.8 NE 7 9 1015.0 - 3.4 - - - - - - -
30/02:30pm 19.7 E 4 5 1015.0 - 3.4 - - - - - - -
30/02:00pm 17.3 NNE 7 9 1015.2 - 3.4 - - - - - - -
30/01:30pm 16.1 NNE 5 7 1016.1 - 3.4 Recent precip. - - - - - -
30/01:00pm 16.2 NW 8 10 1016.5 - 2.6 - - - - - - -
30/12:44pm 16.7 NNW 11 15 1016.3 - 1.6 - - - - - - -
30/12:30pm 21.8 NNW 9 15 1016.3 - 0.8 - - - - - - -
30/12:00pm 20.5 N 7 10 1016.3 - 0.8 - - - - - - -
30/11:30am 20.1 N 9 12 1016.3 - 0.8 - - - - - - -
30/11:29am 19.9 N 9 12 1016.3 - 0.8 - - - - - - -
30/11:00am 14.9 N 10 13 1016.4 - 0.8 - - - - - - -
30/10:30am 18.3 N 12 17 1016.7 - 0.0 Fine Mostly cloudy 40 - - - -
30/10:00am 17.5 N 14 19 1016.6 - 0.0 - - - - - - -
30/09:30am 16.7 NNE 16 22 1016.7 - 0.0 - - - - - - -
30/09:00am 15.2 NNE 15 21 1016.6 - 0.0 - - - - - - -
30/08:30am 13.9 NNE 14 23 1016.4 - 0.0 - - - - - - -
30/08:00am 12.8 NNE 14 20 1016.2 - 0.0 - - - - - - -
30/07:30am 12.6 NNE 14 22 1016.0 - 0.0 - - - - - - -
30/07:00am 12.6 NNE 14 22 1015.9 - 0.0 - - - - - - -
30/06:30am 12.7 NNE 15 22 1015.8 - 0.0 - - - - - - -
30/06:00am 13.3 NNE 15 20 1015.8 - 0.0 - - - - - - -
30/05:30am 13.2 NNE 14 20 1015.3 - 0.0 - - - - - - -
30/05:00am 13.0 NNE 14 20 1015.4 - 0.0 - - - - - - -
30/04:30am 12.8 NNE 15 21 1015.7 - 0.0 - - - - - - -
30/04:00am 13.4 NNE 15 20 1015.7 - 0.0 - - - - - - -
30/03:30am 13.8 NNE 15 22 1016.1 - 0.0 - - - - - - -
30/03:00am 14.1 NNE 15 22 1016.5 - 0.0 - - - - - - -
30/02:30am 13.9 NNE 14 19 1017.0 - 0.0 - - - - - - -
30/02:00am 13.9 NE 14 22 1017.4 - 0.0 - - - - - - -
30/01:30am 13.9 NE 12 17 1017.6 - 0.0 - - - - - - -
30/01:00am 14.6 NE 12 18 1018.1 - 0.0 - - - - - - -
30/12:30am 15.0 NE 12 18 1018.3 - 0.0 - - - - - - -
30/12:00am 15.3 NE 12 19 1018.6 - 0.0 - - - - - - -
 
Date/Time
CST
Temp

°C
Wind Pressure Rain
since 9am
mm
Weather Cloud Vis
km
Sea
Height
m
Swell
Dir
 
Speed
knots
Gust
knots
hPa Trend Height
m
Period
s
Dir
29/11:30pm 14.6 NE 11 17 1018.5 - 0.0 - - - - - - -
29/11:00pm 14.1 NE 11 15 1018.6 - 0.0 - - - - - - -
29/10:30pm 14.1 ENE 11 17 1018.8 - 0.0 - - - - - - -
29/10:00pm 14.1 ENE 11 16 1019.1 - 0.0 - - - - - - -
29/09:30pm 14.4 ENE 11 16 1019.3 - 0.0 - - - - - - -
29/09:00pm 14.6 ENE 10 17 1019.3 - 0.0 - - - - - - -
29/08:30pm 14.6 ENE 10 15 1019.3 - 0.0 - - - - - - -
29/08:00pm 14.7 ENE 9 14 1019.3 - 0.0 - - - - - - -
29/07:30pm 14.8 ENE 10 15 1019.1 - 0.0 - - - - - - -
29/07:00pm 15.4 E 12 17 1018.9 - 0.0 - - - - - - -
29/06:30pm 16.0 E 11 17 1018.8 - 0.0 - - - - - - -
29/06:00pm 16.7 E 11 17 1018.6 - 0.0 - - - - - - -
29/05:30pm 17.7 E 13 19 1018.6 - 0.0 - - - - - - -
29/05:00pm 18.3 E 13 20 1018.6 - 0.0 - - - - - - -
29/04:30pm 19.0 E 13 20 1018.6 - 0.0 Fine Mostly clear 40 - - - -
29/04:00pm 19.3 ESE 13 18 1018.9 - 0.0 - - - - - - -
29/03:30pm 19.2 ESE 12 17 1019.1 - 0.0 - - - - - - -
29/03:00pm 19.5 ESE 11 18 1019.3 - 0.0 - - - - - - -
29/02:30pm 19.9 ENE 9 15 1019.8 - 0.0 - - - - - - -
29/02:00pm 23.0 NE 9 15 1020.1 - 0.0 - - - - - - -
29/01:30pm 22.9 NNE 10 17 1020.6 - 0.0 - - - - - - -
29/01:00pm 22.3 NNE 13 18 1021.2 - 0.0 - - - - - - -
29/12:30pm 21.2 NNE 12 18 1021.7 - 0.0 - - - - - - -
29/12:00pm 20.4 NNE 13 19 1022.2 - 0.0 - - - - - - -
29/11:30am 19.2 NNE 14 22 1022.5 - 0.0 - - - - - - -
29/11:00am 18.8 NE 14 22 1022.7 - 0.0 - - - - - - -
29/10:30am 17.3 NNE 14 19 1023.1 - 0.0 Fine Clear 40 - - - -
29/10:00am 15.9 NNE 14 19 1023.2 - 0.0 - - - - - - -
29/09:30am 14.8 NNE 13 19 1023.3 - 0.0 - - - - - - -
29/09:00am 13.0 NNE 12 17 1023.4 - 0.0 - - - - - - -
29/08:30am 11.0 NNE 11 16 1023.2 - 0.0 - - - - - - -
29/08:00am 8.5 NNE 11 15 1022.9 - 0.0 - - - - - - -
29/07:30am 7.7 NNE 9 14 1022.8 - 0.0 - - - - - - -
29/07:00am 7.7 NE 9 14 1022.6 - 0.0 - - - - - - -
29/06:30am 8.1 NE 10 14 1022.5 - 0.0 - - - - - - -
29/06:00am 8.5 NE 9 14 1022.5 - 0.0 - - - - - - -
29/05:30am 8.7 NE 11 15 1022.4 - 0.0 - - - - - - -
29/05:00am 9.0 NE 11 16 1022.3 - 0.0 - - - - - - -
29/04:30am 9.6 NE 11 17 1022.5 - 0.0 - - - - - - -
29/04:00am 9.7 NE 11 18 1022.8 - 0.0 - - - - - - -
29/03:30am 10.0 NE 10 16 1022.9 - 0.0 - - - - - - -
29/03:00am 10.1 NE 12 16 1023.2 - 0.0 - - - - - - -
29/02:30am 10.0 NE 11 15 1023.5 - 0.0 - - - - - - -
29/02:00am 10.0 NE 10 16 1023.7 - 0.0 - - - - - - -
29/01:30am 9.8 NE 9 12 1023.9 - 0.0 - - - - - - -
29/01:00am 10.2 ENE 9 13 1024.1 - 0.0 - - - - - - -
29/12:30am 10.6 ENE 9 14 1024.2 - 0.0 - - - - - - -
29/12:00am 10.9 ENE 8 13 1024.4 - 0.0 - - - - - - -
 
Date/Time
CST
Temp

°C
Wind Pressure Rain
since 9am
mm
Weather Cloud Vis
km
Sea
Height
m
Swell
Dir
 
Speed
knots
Gust
knots
hPa Trend Height
m
Period
s
Dir
28/11:30pm 11.3 ENE 8 11 1024.6 - 0.0 - - - - - - -
28/11:00pm 11.6 ENE 8 12 1024.8 - 0.0 - - - - - - -
28/10:30pm 11.7 ENE 8 13 1024.9 - 0.0 - - - - - - -
28/10:00pm 11.9 ENE 9 14 1024.9 - 0.0 - - - - - - -
28/09:30pm 12.1 E 9 16 1024.8 - 0.0 - - - - - - -
28/09:00pm 12.4 E 10 18 1024.6 - 0.0 - - - - - - -
28/08:30pm 12.7 E 9 14 1024.2 - 0.0 - - - - - - -
28/08:00pm 12.7 E 9 14 1024.0 - 0.0 - - - - - - -
28/07:30pm 12.8 E 9 17 1023.8 - 0.0 - - - - - - -
28/07:00pm 13.1 E 9 15 1023.6 - 0.0 - - - - - - -
28/06:30pm 13.5 E 11 17 1023.3 - 0.0 - - - - - - -
28/06:00pm 14.3 E 11 17 1023.0 - 0.0 - - - - - - -
28/05:30pm 15.0 ESE 12 18 1023.0 - 0.0 - - - - - - -
28/05:00pm 15.1 ESE 14 20 1022.9 - 0.0 - - - - - - -
28/04:30pm 15.8 ESE 13 18 1023.1 - 0.0 Fine Mostly clear 40 - - - -
28/04:00pm 16.0 ESE 13 20 1023.1 - 0.0 - - - - - - -
28/03:30pm 16.5 ESE 12 20 1023.2 - 0.0 - - - - - - -
28/03:00pm 16.9 ESE 14 19 1023.4 - 0.0 - - - - - - -
28/02:30pm 17.3 ESE 12 16 1023.7 - 0.0 - - - - - - -
28/02:00pm 19.6 NE 8 15 1024.0 - 0.0 - - - - - - -
28/01:30pm 19.3 NNE 9 15 1024.4 - 0.0 - - - - - - -
28/01:00pm 18.4 NNE 10 17 1024.9 - 0.0 - - - - - - -
28/12:30pm 18.6 NNE 11 17 1025.5 - 0.0 - - - - - - -
28/12:00pm 17.4 NNE 12 19 1026.1 - 0.0 - - - - - - -
28/11:30am 16.6 NNE 13 18 1026.4 - 0.0 - - - - - - -
28/11:00am 15.7 NNE 12 19 1026.7 - 0.0 - - - - - - -
28/10:30am 14.3 NNE 12 17 1026.8 - 0.2 Fine Mostly clear 40 - - - -
28/10:00am 12.9 NE 12 18 1027.2 - 0.2 - - - - - - -
28/09:30am 11.9 NE 13 18 1027.2 - 0.2 - - - - - - -
28/09:00am 11.3 NE 9 15 1027.2 - 0.2 - - - - - - -
28/08:30am 9.7 NE 11 17 1027.0 - 0.2 - - - - - - -
28/08:00am 8.4 NE 9 14 1026.8 - 0.2 - - - - - - -
28/07:30am 7.7 NE 9 12 1026.7 - 0.2 - - - - - - -
28/07:00am 7.9 NE 9 13 1026.4 - 0.2 - - - - - - -
28/06:30am 8.2 ENE 9 14 1026.4 - 0.2 - - - - - - -
28/06:00am 8.4 NE 8 12 1026.3 - 0.2 - - - - - - -
28/05:30am 8.4 ENE 9 14 1026.2 - 0.2 - - - - - - -
28/05:00am 8.3 ENE 9 15 1026.0 - 0.2 - - - - - - -
28/04:30am 8.5 ENE 9 12 1026.0 - 0.2 - - - - - - -
28/04:00am 8.9 ENE 9 15 1026.3 - 0.2 - - - - - - -
28/03:30am 9.3 ENE 9 14 1026.4 - 0.2 - - - - - - -
28/03:00am 9.5 ENE 9 13 1026.5 - 0.2 - - - - - - -
28/02:30am 9.0 NE 8 13 1026.8 - 0.2 - - - - - - -
28/02:00am 8.9 NE 9 14 1027.0 - 0.2 - - - - - - -
28/01:30am 9.3 ENE 7 11 1027.2 - 0.2 - - - - - - -
28/01:00am 9.7 ENE 8 12 1027.1 - 0.2 - - - - - - -
28/12:30am 10.2 ENE 9 12 1027.1 - 0.2 - - - - - - -
28/12:00am 9.9 ENE 7 11 1027.5 - 0.2 - - - - - - -
 
Date/Time
CST
Temp

°C
Wind Pressure Rain
since 9am
mm
Weather Cloud Vis
km
Sea
Height
m
Swell
Dir
 
Speed
knots
Gust
knots
hPa Trend Height
m
Period
s
Dir
27/11:30pm 9.7 ENE 6 8 1027.8 - 0.2 - - - - - - -
27/11:00pm 10.3 ENE 6 8 1028.0 - 0.2 - - - - - - -
27/10:30pm 10.9 ENE 6 8 1028.1 - 0.2 - - - - - - -
27/10:00pm 11.6 E 7 12 1028.1 - 0.2 - - - - - - -
27/09:30pm 11.8 E 8 13 1027.8 - 0.2 - - - - - - -
27/09:00pm 11.6 E 8 12 1027.6 - 0.2 - - - - - - -

Other Formats:

Comma delimited format used in spreadsheet applications
http://www.bom.gov.au/fwo/IDS60701/IDS60701.94647.axf

JavaScript Object Notation format (JSON) in row-major order
http://www.bom.gov.au/fwo/IDS60701/IDS60701.94647.json